Time;durP1;ratioP1;P1;durP2;ratioP2;P2;SDS_P1;SDS_P2;PMS_P1;PMS_P2;Temp;Humidity;BMP_temperature;BMP_pressure;BME280_temperature;BME280_humidity;BME280_pressure;Samples;Min_cycle;Max_cycle;Signal;HPM_P1;HPM_P2
2022/07/10 07:08:36;;;;;;;;;6.00;3.00;;;;;20.15;48.43;102501.25;2385824;28;74531;-75
2022/07/10 07:09:49;;;;;;;;;3.75;2.50;;;;;20.15;48.07;102495.91;2391590;28;45391;-76
2022/07/10 07:10:59;;;;;;;;;2.25;2.25;;;;;20.16;48.58;102496.78;2394261;28;45348;-76
2022/07/10 07:12:10;;;;;;;;;4.50;3.00;;;;;20.19;48.62;102500.19;2394670;28;45375;-76
2022/07/10 07:13:20;;;;;;;;;4.25;3.00;;;;;20.19;48.15;102502.84;2394865;28;46316;-75
2022/07/10 07:14:31;;;;;;;;;4.50;3.50;;;;;20.22;47.72;102505.38;2403022;28;44680;-76
2022/07/10 07:15:46;;;;;;;;;3.25;3.25;;;;;20.20;47.54;102493.91;2399654;28;45298;-76
2022/07/10 07:16:58;;;;;;;;;5.25;4.00;;;;;20.22;47.18;102501.84;2395043;28;45167;-76
2022/07/10 07:18:12;;;;;;;;;2.00;2.00;;;;;20.18;46.29;102501.09;2404096;28;46440;-76
2022/07/10 07:19:30;;;;;;;;;3.00;2.50;;;;;20.19;47.69;102499.31;2399353;28;44837;-76
2022/07/10 07:23:38;;;;;;;;;2.00;2.00;;;;;20.28;47.52;102496.22;2391878;28;45883;-75
2022/07/10 07:24:48;;;;;;;;;3.00;3.00;;;;;20.29;47.47;102494.41;2401904;28;45222;-76
2022/07/10 07:25:59;;;;;;;;;4.25;3.00;;;;;20.31;47.80;102490.75;2403556;28;46737;-76
2022/07/10 07:27:10;;;;;;;;;3.25;3.25;;;;;20.37;47.34;102491.38;2394353;28;45195;-76
2022/07/10 07:28:21;;;;;;;;;3.50;3.25;;;;;20.40;47.22;102488.56;2395364;28;46738;-76
2022/07/10 07:29:31;;;;;;;;;3.25;3.00;;;;;20.44;47.70;102487.50;2402953;28;45245;-76
2022/07/10 07:30:42;;;;;;;;;2.50;2.00;;;;;20.48;47.62;102496.22;2393789;28;45406;-75
2022/07/10 07:31:55;;;;;;;;;3.00;3.00;;;;;20.52;47.63;102497.81;2394917;28;45161;-76
2022/07/10 07:33:05;;;;;;;;;3.00;2.50;;;;;20.54;47.45;102488.78;2393910;28;48395;-76
2022/07/10 07:34:15;;;;;;;;;4.25;3.00;;;;;20.58;47.22;102493.03;2394313;28;44796;-76
2022/07/10 07:35:26;;;;;;;;;6.00;3.00;;;;;20.60;46.58;102487.59;2393408;28;46127;-76
2022/07/10 07:36:37;;;;;;;;;3.25;2.75;;;;;20.62;47.07;102488.41;2394416;28;45197;-76
2022/07/10 07:37:49;;;;;;;;;2.25;2.25;;;;;20.61;46.78;102484.00;2390734;28;45425;-76
2022/07/10 07:39:00;;;;;;;;;2.00;2.00;;;;;20.61;46.75;102485.81;2392011;28;45448;-77
2022/07/10 07:40:13;;;;;;;;;2.00;2.00;;;;;20.62;46.89;102480.38;2391115;28;46242;-77
2022/07/10 07:41:23;;;;;;;;;6.25;2.00;;;;;20.64;47.05;102480.31;2391453;28;45415;-77
2022/07/10 07:42:33;;;;;;;;;2.75;2.75;;;;;20.65;46.84;102472.22;2396310;28;46465;-77
2022/07/10 07:43:44;;;;;;;;;3.25;2.00;;;;;20.65;46.66;102474.91;2393178;28;45313;-77
2022/07/10 07:44:54;;;;;;;;;4.25;3.00;;;;;20.66;46.67;102478.44;2394685;28;46051;-77
2022/07/10 07:46:04;;;;;;;;;5.00;2.50;;;;;20.66;46.25;102473.09;2396799;28;45594;-77
2022/07/10 07:47:15;;;;;;;;;3.00;3.00;;;;;20.68;46.73;102482.78;2397109;28;45687;-77
2022/07/10 07:48:25;;;;;;;;;3.00;3.00;;;;;20.68;46.74;102469.41;2386120;28;44801;-77
2022/07/10 07:49:35;;;;;;;;;3.00;2.00;;;;;20.68;46.30;102465.88;2387311;28;45605;-77
2022/07/10 07:50:46;;;;;;;;;4.00;4.00;;;;;20.69;46.37;102460.44;2398381;28;45292;-77
2022/07/10 07:51:57;;;;;;;;;3.00;3.00;;;;;20.70;46.55;102469.31;2390696;28;46773;-76
2022/07/10 07:53:07;;;;;;;;;2.00;2.00;;;;;20.72;46.61;102461.25;2390626;28;45205;-77
2022/07/10 07:54:18;;;;;;;;;1.00;1.00;;;;;20.72;46.21;102459.44;2403172;28;47942;-76
2022/07/10 07:55:29;;;;;;;;;5.75;3.00;;;;;20.76;46.66;102460.16;2402038;28;45347;-77
2022/07/10 07:56:40;;;;;;;;;2.00;2.00;;;;;20.76;45.92;102457.47;2392761;28;45420;-77
2022/07/10 07:57:55;;;;;;;;;3.25;3.25;;;;;20.74;45.14;102465.56;2392794;28;45438;-76
2022/07/10 07:59:06;;;;;;;;;2.75;2.75;;;;;20.73;46.44;102457.63;2395087;28;47591;-76
2022/07/10 08:00:21;;;;;;;;;3.00;2.00;;;;;20.73;46.06;102460.31;2403498;28;44797;-76
2022/07/10 08:01:32;;;;;;;;;2.25;2.25;;;;;20.73;46.61;102454.97;2397918;28;45365;-76
2022/07/10 08:02:42;;;;;;;;;3.25;2.75;;;;;20.74;46.62;102457.53;2399078;28;44694;-77
2022/07/10 08:03:53;;;;;;;;;3.00;3.00;;;;;20.76;46.12;102462.84;2403734;28;46271;-77
2022/07/10 08:05:04;;;;;;;;;2.50;2.50;;;;;20.76;45.73;102458.34;2396521;28;46075;-77
2022/07/10 08:06:15;;;;;;;;;2.00;2.00;;;;;20.76;45.44;102458.34;2389442;28;45555;-77
2022/07/10 08:07:53;;;;;;;;;5.25;2.00;;;;;20.76;45.87;102463.69;2395250;28;45547;-77
2022/07/10 08:09:03;;;;;;;;;4.00;3.00;;;;;20.76;45.73;102457.47;2385221;28;45408;-76
2022/07/10 08:10:17;;;;;;;;;2.50;2.50;;;;;20.78;46.24;102460.94;2396491;28;45513;-77
2022/07/10 08:11:27;;;;;;;;;3.25;2.75;;;;;20.81;45.49;102463.47;2403642;28;46541;-77
2022/07/10 08:12:38;;;;;;;;;3.00;3.00;;;;;20.86;45.83;102465.91;2403862;28;45233;-76
2022/07/10 08:13:49;;;;;;;;;4.75;2.50;;;;;20.88;45.75;102472.03;2403643;28;45277;-77
2022/07/10 08:14:59;;;;;;;;;2.00;2.00;;;;;20.91;45.57;102469.22;2387619;28;45564;-77
2022/07/10 08:16:10;;;;;;;;;1.00;0.00;;;;;20.90;44.83;102471.03;2384513;28;45563;-76
2022/07/10 08:17:21;;;;;;;;;3.00;3.00;;;;;20.89;44.88;102473.78;2388448;28;45279;-76
2022/07/10 08:18:32;;;;;;;;;3.00;2.00;;;;;20.91;45.18;102464.72;2390164;28;45225;-76
2022/07/10 08:19:42;;;;;;;;;3.25;2.00;;;;;20.92;44.93;102466.47;2390213;28;44801;-77
2022/07/10 08:20:52;;;;;;;;;1.00;1.00;;;;;20.94;44.77;102461.03;2396274;28;45411;-76
2022/07/10 08:22:03;;;;;;;;;3.00;3.00;;;;;20.98;45.15;102464.44;2399318;28;45459;-77
2022/07/10 08:23:13;;;;;;;;;2.50;2.50;;;;;21.01;45.18;102456.31;2394624;28;45416;-76
2022/07/10 08:24:23;;;;;;;;;3.75;2.00;;;;;21.05;44.84;102457.88;2402210;28;45312;-77
2022/07/10 08:25:35;;;;;;;;;2.00;2.00;;;;;21.08;44.68;102452.38;2393878;28;45399;-76
2022/07/10 08:26:45;;;;;;;;;1.00;1.00;;;;;21.09;44.29;102459.44;2388505;28;45350;-76
2022/07/10 08:28:01;;;;;;;;;3.50;2.00;;;;;21.10;44.14;102449.59;2387198;28;46371;-76
2022/07/10 08:29:11;;;;;;;;;2.00;2.00;;;;;21.12;43.59;102453.94;2400434;28;45213;-77
2022/07/10 08:30:21;;;;;;;;;3.00;1.25;;;;;21.12;44.27;102445.03;2396392;28;46414;-76
2022/07/10 08:31:33;;;;;;;;;2.75;2.00;;;;;21.13;44.12;102452.13;2394973;28;45235;-76
2022/07/10 08:32:43;;;;;;;;;3.25;3.00;;;;;21.13;43.73;102450.34;2394164;28;46083;-77
2022/07/10 08:33:53;;;;;;;;;2.00;2.00;;;;;21.17;43.78;102456.38;2394220;28;45424;-76
2022/07/10 08:35:05;;;;;;;;;4.25;3.00;;;;;21.20;44.36;102460.69;2393846;28;45266;-77
2022/07/10 08:36:15;;;;;;;;;2.00;2.00;;;;;21.23;43.97;102453.41;2394089;28;44695;-78
2022/07/10 08:37:26;;;;;;;;;2.00;2.00;;;;;21.28;44.16;102455.84;2392742;28;45492;-78
2022/07/10 08:38:37;;;;;;;;;3.00;2.75;;;;;21.33;44.23;102451.13;2397012;28;45298;-77
2022/07/10 08:39:47;;;;;;;;;4.00;2.75;;;;;21.38;44.11;102455.34;2394018;28;45428;-78
2022/07/10 08:41:02;;;;;;;;;2.00;2.00;;;;;21.44;43.93;102452.34;2394538;28;45214;-78
2022/07/10 08:42:14;;;;;;;;;1.25;1.25;;;;;21.48;44.36;102452.09;2401707;28;45482;-78
2022/07/10 08:43:25;;;;;;;;;2.00;2.00;;;;;21.54;42.90;102447.38;2396101;28;45332;-77
2022/07/10 08:44:35;;;;;;;;;4.00;2.25;;;;;21.56;43.47;102446.34;2394316;28;45585;-78
2022/07/10 08:45:48;;;;;;;;;3.00;3.00;;;;;21.61;43.64;102439.91;2397103;28;45265;-77
2022/07/10 08:46:59;;;;;;;;;3.00;3.00;;;;;21.66;43.50;102449.41;2393772;28;45492;-77
2022/07/10 08:48:12;;;;;;;;;3.00;2.00;;;;;21.71;43.43;102443.78;2401823;28;45471;-77
2022/07/10 08:49:30;;;;;;;;;2.00;2.00;;;;;21.75;42.87;102444.50;2403540;28;45443;-77
2022/07/10 08:50:47;;;;;;;;;2.00;1.25;;;;;21.77;42.63;102432.78;2401849;28;44787;-77
2022/07/10 08:52:04;;;;;;;;;2.50;2.50;;;;;21.80;42.44;102442.44;2403555;28;45640;-77
2022/07/10 08:53:29;;;;;;;;;2.75;2.00;;;;;21.86;42.61;102446.59;2403244;28;45364;-77
2022/07/10 08:54:41;;;;;;;;;2.00;2.00;;;;;21.89;42.05;102433.94;2403453;28;45656;-77
2022/07/10 08:55:51;;;;;;;;;3.00;3.00;;;;;21.91;42.81;102440.06;2398088;28;45446;-77
2022/07/10 08:57:03;;;;;;;;;2.50;2.00;;;;;21.96;42.52;102444.31;2398155;28;46522;-77
2022/07/10 08:58:14;;;;;;;;;4.00;2.50;;;;;21.96;42.17;102439.81;2392752;28;44778;-77
2022/07/10 08:59:24;;;;;;;;;4.00;2.50;;;;;21.98;42.24;102435.25;2392413;28;46469;-78
2022/07/10 09:00:35;;;;;;;;;2.00;2.00;;;;;22.01;42.28;102428.84;2396738;28;45459;-84
2022/07/10 09:01:45;;;;;;;;;3.00;3.00;;;;;22.02;41.86;102431.47;2386245;28;47319;-84
2022/07/10 09:02:56;;;;;;;;;2.00;2.00;;;;;22.02;42.05;102427.91;2389182;28;44743;-89
2022/07/10 09:04:06;;;;;;;;;2.25;2.25;;;;;22.05;42.14;102429.56;2392986;28;46388;-84
2022/07/10 09:05:17;;;;;;;;;4.00;2.00;;;;;22.09;41.89;102431.13;2389879;28;45525;-84
2022/07/10 09:06:28;;;;;;;;;1.00;1.00;;;;;22.10;41.25;102427.50;2394602;28;46439;-88
2022/07/10 09:07:41;;;;;;;;;3.25;3.25;;;;;22.13;42.05;102430.84;2393497;28;45264;-87
2022/07/10 09:09:05;;;;;;;;;2.25;2.25;;;;;22.16;41.58;102424.47;2393385;28;46900;-85
2022/07/10 09:10:16;;;;;;;;;2.00;2.00;;;;;22.18;39.82;102425.25;2392341;28;46393;-86
2022/07/10 09:11:28;;;;;;;;;2.00;2.00;;;;;22.16;40.09;102416.44;2392748;28;45460;-86
2022/07/10 09:12:58;;;;;;;;;1.25;1.25;;;;;22.15;40.62;102422.72;2399847;28;45411;-87
2022/07/10 09:14:14;;;;;;;;;2.00;2.00;;;;;22.15;40.70;102426.28;2391134;28;48001;-86
2022/07/10 09:15:29;;;;;;;;;3.75;3.75;;;;;22.18;40.67;102422.56;2395741;28;45446;-86
2022/07/10 09:16:48;;;;;;;;;3.00;3.00;;;;;22.23;40.64;102425.84;2395298;28;45704;-85
2022/07/10 09:18:00;;;;;;;;;2.00;2.00;;;;;22.25;40.45;102415.03;2383208;28;44601;-86
2022/07/10 09:19:22;;;;;;;;;4.00;3.75;;;;;22.29;40.96;102413.06;2389212;28;46176;-85
2022/07/10 09:20:35;;;;;;;;;4.00;3.00;;;;;22.33;41.15;102410.13;2390732;28;45361;-85
2022/07/10 09:21:51;;;;;;;;;4.00;2.50;;;;;22.36;40.68;102403.72;2390697;28;47708;-86
2022/07/10 09:23:25;;;;;;;;;3.00;3.00;;;;;22.42;40.30;102406.03;2391620;28;45274;-85
2022/07/10 09:24:37;;;;;;;;;2.50;2.50;;;;;22.43;40.82;102404.22;2392279;28;46063;-84
2022/07/10 09:25:50;;;;;;;;;2.75;2.25;;;;;22.49;41.03;102411.94;2401796;28;45480;-85
2022/07/10 09:27:03;;;;;;;;;2.00;2.00;;;;;22.52;40.13;102411.72;2396322;28;45559;-85
2022/07/10 09:28:16;;;;;;;;;2.00;2.00;;;;;22.55;40.04;102410.69;2394382;28;45455;-85
2022/07/10 09:29:27;;;;;;;;;2.25;2.25;;;;;22.55;38.98;102399.97;2393355;28;46498;-88
2022/07/10 09:30:40;;;;;;;;;2.00;2.00;;;;;22.57;39.35;102415.00;2382680;28;45381;-83
2022/07/10 09:31:55;;;;;;;;;5.00;3.00;;;;;22.57;39.80;102415.00;2374779;28;47716;-84
2022/07/10 09:33:19;;;;;;;;;3.25;2.25;;;;;22.57;39.24;102420.38;2385384;28;45315;-85
2022/07/10 09:34:40;;;;;;;;;2.75;2.00;;;;;22.56;39.73;102407.94;2383831;28;47335;-83
2022/07/10 09:36:14;;;;;;;;;2.00;2.00;;;;;22.56;39.81;102407.06;2388737;28;44798;-83
2022/07/10 09:37:29;;;;;;;;;2.00;2.00;;;;;22.58;40.02;102405.16;2389642;28;46967;-82
2022/07/10 09:38:39;;;;;;;;;2.25;2.25;;;;;22.60;40.07;102409.47;2391456;28;45408;-82
2022/07/10 09:40:03;;;;;;;;;4.50;3.75;;;;;22.63;39.31;102408.44;2393277;28;46404;-83
2022/07/10 09:41:21;;;;;;;;;6.00;3.25;;;;;22.67;39.07;102404.63;2389944;28;45273;-82
2022/07/10 09:42:39;;;;;;;;;4.00;2.50;;;;;22.66;39.34;102399.34;2393239;28;46227;-82
2022/07/10 09:43:50;;;;;;;;;2.75;2.00;;;;;22.67;39.21;102403.75;2392865;28;45321;-82
2022/07/10 09:45:10;;;;;;;;;3.50;2.25;;;;;22.70;39.66;102408.97;2391955;28;46746;-81
2022/07/10 09:46:26;;;;;;;;;2.00;2.00;;;;;22.73;39.59;102405.25;2396496;28;45338;-80
2022/07/10 09:47:37;;;;;;;;;2.00;2.00;;;;;22.78;39.79;102416.56;2392919;28;46542;-82
2022/07/10 09:48:49;;;;;;;;;3.00;2.75;;;;;22.82;39.78;102415.41;2382782;28;45508;-81
2022/07/10 09:50:00;;;;;;;;;2.75;2.75;;;;;22.86;39.18;102408.94;2394365;28;47180;-82
2022/07/10 09:51:11;;;;;;;;;2.75;2.00;;;;;22.89;39.70;102414.09;2391692;28;45431;-81
2022/07/10 09:52:22;;;;;;;;;2.25;2.25;;;;;22.91;39.27;102406.84;2392324;28;45320;-81
2022/07/10 09:53:33;;;;;;;;;3.00;3.00;;;;;22.95;39.94;102396.78;2383157;28;45449;-82
2022/07/10 09:54:46;;;;;;;;;0.75;0.75;;;;;23.01;39.47;102401.81;2395671;28;45627;-81
2022/07/10 09:55:57;;;;;;;;;4.00;2.00;;;;;23.05;39.08;102397.09;2392417;28;45217;-82
2022/07/10 09:57:12;;;;;;;;;2.50;2.50;;;;;23.08;39.08;102402.28;2392564;28;45221;-81
2022/07/10 09:58:32;;;;;;;;;2.00;2.00;;;;;23.08;37.86;102394.25;2388124;28;45158;-81
2022/07/10 09:59:44;;;;;;;;;3.00;2.25;;;;;23.11;38.24;102394.03;2382728;28;47240;-81
2022/07/10 10:00:57;;;;;;;;;2.00;2.00;;;;;23.11;38.89;102393.19;2385698;28;44772;-81
2022/07/10 10:02:11;;;;;;;;;3.50;2.50;;;;;23.12;39.57;102387.72;2394190;28;46638;-81
2022/07/10 10:03:24;;;;;;;;;3.00;2.75;;;;;23.18;39.47;102391.00;2395956;28;45282;-81
2022/07/10 10:04:37;;;;;;;;;3.00;2.00;;;;;23.22;39.51;102392.53;2396981;28;47422;-81
2022/07/10 10:05:58;;;;;;;;;2.25;2.25;;;;;23.24;38.25;102393.28;2395028;28;45559;-83
2022/07/10 10:07:12;;;;;;;;;2.50;2.00;;;;;23.24;38.82;102395.97;2385675;28;47263;-83
2022/07/10 10:08:35;;;;;;;;;2.25;2.00;;;;;23.26;38.95;102389.56;2383575;28;45330;-82
2022/07/10 10:09:56;;;;;;;;;2.00;2.00;;;;;23.28;39.18;102392.16;2394892;28;46595;-81
2022/07/10 10:11:12;;;;;;;;;3.00;2.00;;;;;23.31;38.97;102391.94;2384967;28;45500;-81
2022/07/10 10:12:35;;;;;;;;;4.00;3.25;;;;;23.37;38.91;102393.41;2387232;28;45320;-81
2022/07/10 10:13:46;;;;;;;;;2.00;2.00;;;;;23.37;38.49;102388.91;2385376;28;44875;-82
2022/07/10 10:14:59;;;;;;;;;3.00;3.00;;;;;23.42;38.84;102393.13;2391186;28;46261;-81
2022/07/10 10:16:10;;;;;;;;;4.00;3.00;;;;;23.43;39.28;102389.50;2384431;28;45447;-82
2022/07/10 10:17:22;;;;;;;;;3.25;3.00;;;;;23.45;38.03;102380.38;2388250;28;46515;-82
2022/07/10 10:18:33;;;;;;;;;3.00;3.00;;;;;23.48;38.83;102387.38;2392781;28;45332;-81
2022/07/10 10:21:14;;;;;;;;;2.25;2.25;;;;;23.55;38.36;102382.53;2393111;28;45468;-83
2022/07/10 10:22:25;;;;;;;;;2.00;2.00;;;;;23.58;38.96;102377.81;2392320;28;45472;-82
2022/07/10 10:23:36;;;;;;;;;2.00;2.00;;;;;23.62;37.83;102385.66;2391847;28;45071;-82
2022/07/10 10:24:46;;;;;;;;;4.25;2.75;;;;;23.64;38.91;102379.25;2392923;28;46002;-81
2022/07/10 10:25:57;;;;;;;;;2.00;1.25;;;;;23.67;38.32;102387.13;2395694;28;45509;-82
2022/07/10 10:27:08;;;;;;;;;2.75;2.75;;;;;23.69;37.94;102378.97;2392060;28;45406;-81
2022/07/10 10:28:25;;;;;;;;;2.00;2.00;;;;;23.71;38.45;102377.03;2383502;28;45250;-81
2022/07/10 10:29:37;;;;;;;;;2.00;2.00;;;;;23.75;38.64;102375.03;2387522;28;47872;-82
2022/07/10 10:30:48;;;;;;;;;3.50;2.75;;;;;23.77;38.39;102378.47;2384292;28;45422;-82
2022/07/10 10:31:59;;;;;;;;;2.00;2.00;;;;;23.77;37.20;102373.97;2384814;28;45645;-82
2022/07/10 10:33:31;;;;;;;;;2.00;2.00;;;;;23.80;38.81;102379.16;2393993;28;45538;-82
2022/07/10 10:34:55;;;;;;;;;3.00;2.00;;;;;23.81;38.75;102370.13;2393155;28;45704;-81
2022/07/10 10:36:06;;;;;;;;;3.00;3.00;;;;;23.85;38.54;102377.97;2382159;28;45437;-82
2022/07/10 10:37:40;;;;;;;;;3.75;2.00;;;;;23.87;37.72;102368.88;2388528;28;46756;-81
2022/07/10 10:38:55;;;;;;;;;3.25;2.50;;;;;23.87;37.45;102370.69;2390205;28;45508;-82
2022/07/10 10:40:09;;;;;;;;;4.00;3.00;;;;;23.86;38.62;102369.81;2392467;28;45525;-82
2022/07/10 10:41:22;;;;;;;;;3.00;2.00;;;;;23.88;38.52;102359.84;2384379;28;45332;-82
2022/07/10 10:42:38;;;;;;;;;2.00;2.00;;;;;23.93;38.55;102362.22;2375325;28;47282;-87
2022/07/10 10:44:16;;;;;;;;;2.00;2.00;;;;;23.96;37.32;102364.72;2386099;28;45461;-82
2022/07/10 10:45:29;;;;;;;;;2.25;2.25;;;;;23.98;38.72;102362.78;2394208;28;47067;-82
2022/07/10 10:46:56;;;;;;;;;2.50;1.00;;;;;24.00;38.64;102360.88;2389545;28;45335;-82
2022/07/10 10:48:09;;;;;;;;;2.25;2.00;;;;;24.00;38.12;102365.41;2392847;28;46055;-82
2022/07/10 10:49:22;;;;;;;;;3.00;2.50;;;;;24.00;37.41;102360.88;2396232;28;45598;-81
2022/07/10 10:50:51;;;;;;;;;1.75;1.75;;;;;24.03;38.10;102355.31;2383306;28;48029;-81
2022/07/10 10:52:10;;;;;;;;;1.00;1.00;;;;;24.04;37.77;102359.72;2388101;28;44815;-82
2022/07/10 10:53:26;;;;;;;;;3.00;3.00;;;;;24.05;37.40;102342.63;2387214;28;47369;-82
2022/07/10 10:54:55;;;;;;;;;2.25;2.25;;;;;24.09;37.94;102350.50;2389924;28;45342;-82
2022/07/10 10:56:07;;;;;;;;;3.75;3.75;;;;;24.09;37.31;102354.03;2397080;28;47837;-83
2022/07/10 10:57:18;;;;;;;;;2.00;2.00;;;;;24.07;37.40;102355.09;2395425;28;45372;-82
2022/07/10 10:58:36;;;;;;;;;3.25;2.25;;;;;24.07;37.89;102344.38;2388099;28;48148;-83
2022/07/10 10:59:49;;;;;;;;;2.75;2.75;;;;;24.10;37.71;102354.91;2379104;28;45375;-83
2022/07/10 11:01:04;;;;;;;;;3.00;3.00;;;;;24.11;37.90;102338.69;2378968;28;47083;-82
2022/07/10 11:02:28;;;;;;;;;4.00;2.00;;;;;24.13;37.53;102334.06;2386144;28;45366;-83
2022/07/10 11:03:39;;;;;;;;;2.50;2.00;;;;;24.16;37.80;102341.94;2390623;28;46452;-83
2022/07/10 11:04:49;;;;;;;;;2.00;2.00;;;;;24.18;38.34;102336.44;2393299;28;45334;-83
2022/07/10 11:06:02;;;;;;;;;1.50;1.50;;;;;24.17;37.61;102335.59;2394073;28;47057;-82
2022/07/10 11:07:12;;;;;;;;;1.75;1.75;;;;;24.16;37.54;102335.69;2392745;28;45344;-84
2022/07/10 11:08:41;;;;;;;;;2.00;2.00;;;;;24.18;37.70;102333.75;2395560;28;45470;-83
2022/07/10 11:10:30;;;;;;;;;2.00;2.00;;;;;24.20;36.81;102331.00;2393283;28;45302;-81
2022/07/10 11:11:40;;;;;;;;;2.50;2.50;;;;;24.17;37.90;102330.22;2391778;28;45400;-81
2022/07/10 11:13:01;;;;;;;;;2.00;2.00;;;;;24.19;38.18;102327.44;2384908;28;45365;-82
2022/07/10 11:14:13;;;;;;;;;3.00;3.00;;;;;24.22;38.52;102318.31;2385716;28;45396;-81
2022/07/10 11:15:24;;;;;;;;;1.50;1.50;;;;;24.24;38.05;102314.56;2392517;28;45277;-81
2022/07/10 11:16:35;;;;;;;;;1.00;1.00;;;;;24.27;37.62;102316.22;2392528;28;46175;-81
2022/07/10 11:17:45;;;;;;;;;2.75;2.00;;;;;24.29;38.59;102316.97;2389981;28;44803;-81
2022/07/10 11:18:56;;;;;;;;;1.25;1.25;;;;;24.30;38.07;102318.69;2383475;28;46059;-81
2022/07/10 11:20:07;;;;;;;;;3.25;2.00;;;;;24.33;37.35;102312.25;2393924;28;45352;-81
2022/07/10 11:21:28;;;;;;;;;2.00;2.00;;;;;24.36;38.20;102306.66;2392719;28;45835;-80
2022/07/10 11:22:52;;;;;;;;;2.50;2.00;;;;;24.41;37.87;102303.66;2390512;28;44833;-80
2022/07/10 11:24:31;;;;;;;;;3.25;3.00;;;;;24.42;37.56;102305.41;2391376;28;45524;-81
2022/07/10 11:26:13;;;;;;;;;2.00;2.00;;;;;24.49;38.11;102315.63;2392489;28;45444;-80
2022/07/10 11:27:30;;;;;;;;;3.00;2.00;;;;;24.51;37.38;102310.16;2387449;28;46166;-82
2022/07/10 11:28:43;;;;;;;;;2.00;2.00;;;;;24.53;37.75;102297.47;2392735;28;45266;-81
2022/07/10 11:29:58;;;;;;;;;1.25;1.25;;;;;24.56;37.88;102293.69;2388849;28;45515;-82
2022/07/10 11:31:08;;;;;;;;;3.00;3.00;;;;;24.59;38.43;102291.69;2389550;28;44721;-81
2022/07/10 11:32:20;;;;;;;;;4.50;2.00;;;;;24.60;38.02;102287.13;2388598;28;46377;-82
2022/07/10 11:33:39;;;;;;;;;2.00;2.00;;;;;24.63;37.52;102296.81;2386155;28;45266;-82
2022/07/10 11:34:50;;;;;;;;;1.25;1.25;;;;;24.66;37.87;102293.94;2391421;28;46352;-82
2022/07/10 11:36:10;;;;;;;;;3.00;2.00;;;;;24.72;37.87;102301.56;2392727;28;44842;-82
2022/07/10 11:37:22;;;;;;;;;1.50;1.50;;;;;24.75;38.11;102285.22;2392881;28;45325;-81
2022/07/10 11:38:35;;;;;;;;;2.50;2.50;;;;;24.79;37.59;102292.09;2395552;28;45346;-82
2022/07/10 11:39:45;;;;;;;;;4.25;3.50;;;;;24.82;37.56;102288.31;2393088;28;45500;-82
2022/07/10 11:40:55;;;;;;;;;3.00;3.00;;;;;24.82;37.51;102289.19;2391920;28;44687;-82
2022/07/10 11:42:06;;;;;;;;;2.50;2.00;;;;;24.83;36.87;102285.56;2391592;28;45576;-82
2022/07/10 11:43:17;;;;;;;;;2.00;2.00;;;;;24.84;37.80;102289.94;2392557;28;45459;-82
2022/07/10 11:44:28;;;;;;;;;6.00;3.00;;;;;24.88;37.06;102295.97;2389838;28;47277;-82
2022/07/10 11:45:38;;;;;;;;;2.75;2.75;;;;;24.89;37.19;102292.31;2384592;28;44680;-82
2022/07/10 11:46:49;;;;;;;;;2.25;2.00;;;;;24.94;37.54;102283.94;2395308;28;46229;-83
2022/07/10 11:48:00;;;;;;;;;1.75;1.75;;;;;24.95;37.52;102281.13;2396475;28;45228;-83
2022/07/10 11:49:13;;;;;;;;;1.00;1.00;;;;;24.98;37.80;102290.81;2399937;28;46404;-82
2022/07/10 11:50:24;;;;;;;;;5.00;2.00;;;;;25.02;37.70;102284.28;2391611;28;45278;-82
2022/07/10 11:51:37;;;;;;;;;3.00;2.00;;;;;25.05;37.29;102280.50;2396298;28;46762;-82
2022/07/10 11:52:47;;;;;;;;;2.25;2.00;;;;;25.05;37.56;102281.38;2397892;28;44754;-82
2022/07/10 11:53:59;;;;;;;;;1.75;1.75;;;;;25.07;37.34;102278.56;2394618;28;45617;-82
2022/07/10 11:55:18;;;;;;;;;2.75;2.75;;;;;25.07;37.57;102281.25;2395328;28;45137;-82
2022/07/10 11:56:41;;;;;;;;;1.75;1.25;;;;;25.08;37.87;102280.28;2393681;28;47278;-82
2022/07/10 11:57:52;;;;;;;;;1.00;1.00;;;;;25.11;37.67;102288.16;2388386;28;44589;-82
2022/07/10 11:59:11;;;;;;;;;2.00;2.00;;;;;25.13;36.91;102290.72;2385313;28;46389;-83
2022/07/10 12:00:26;;;;;;;;;2.25;2.00;;;;;25.14;36.20;102287.03;2394198;28;45376;-82
2022/07/10 12:01:44;;;;;;;;;1.00;1.00;;;;;25.14;37.21;102282.53;2400323;28;45541;-82
2022/07/10 12:02:56;;;;;;;;;4.00;2.00;;;;;25.14;38.08;102285.22;2394081;28;45454;-82
2022/07/10 12:04:09;;;;;;;;;1.50;1.25;;;;;25.14;37.08;102279.84;2384127;28;47440;-83
2022/07/10 12:05:30;;;;;;;;;2.00;2.00;;;;;25.16;37.31;102285.97;2385706;28;45406;-82
2022/07/10 12:06:43;;;;;;;;;2.00;1.00;;;;;25.21;37.17;102285.63;2391579;28;45776;-83
2022/07/10 12:07:54;;;;;;;;;2.00;2.00;;;;;25.22;37.47;102283.81;2393320;28;45514;-82
2022/07/10 12:09:10;;;;;;;;;3.50;2.00;;;;;25.24;37.34;102288.13;2393354;28;46516;-83
2022/07/10 12:10:20;;;;;;;;;4.00;2.00;;;;;25.25;37.85;102291.69;2393693;28;45298;-82
2022/07/10 12:11:31;;;;;;;;;4.25;2.00;;;;;25.28;37.40;102281.56;2396426;28;46353;-83
2022/07/10 12:12:42;;;;;;;;;1.25;1.25;;;;;25.31;36.78;102285.00;2398365;28;45413;-83
2022/07/10 12:13:54;;;;;;;;;1.75;1.25;;;;;25.28;36.29;102284.25;2393785;28;45219;-82
2022/07/10 12:15:04;;;;;;;;;1.25;1.25;;;;;25.28;37.30;102286.06;2396172;28;45407;-82
2022/07/10 12:16:15;;;;;;;;;3.00;1.50;;;;;25.30;37.31;102286.81;2397286;28;45524;-82
2022/07/10 12:17:25;;;;;;;;;2.50;2.50;;;;;25.31;36.78;102280.47;2393842;28;45945;-82
2022/07/10 12:18:36;;;;;;;;;1.75;1.75;;;;;25.32;36.47;102286.69;2384659;28;46014;-83
2022/07/10 12:19:50;;;;;;;;;3.75;1.75;;;;;25.32;37.14;102281.31;2387417;28;45432;-82
2022/07/10 12:21:01;;;;;;;;;2.75;1.00;;;;;25.33;37.18;102285.75;2393726;28;46561;-82
2022/07/10 12:22:12;;;;;;;;;3.00;2.00;;;;;25.37;36.44;102281.84;2393490;28;44767;-82
2022/07/10 12:23:23;;;;;;;;;3.00;1.75;;;;;25.36;37.12;102283.69;2394702;28;45579;-82
2022/07/10 12:24:34;;;;;;;;;2.25;2.25;;;;;25.38;36.88;102287.16;2394962;28;45419;-82
2022/07/10 12:25:49;;;;;;;;;1.00;1.00;;;;;25.40;36.82;102289.72;2393030;28;46213;-82
2022/07/10 12:26:59;;;;;;;;;2.00;2.00;;;;;25.43;37.14;102283.25;2391316;28;45526;-82
2022/07/10 12:28:10;;;;;;;;;3.00;2.00;;;;;25.45;37.06;102287.53;2386712;28;47514;-82
2022/07/10 12:29:24;;;;;;;;;2.00;2.00;;;;;25.49;37.60;102288.16;2389270;28;44840;-82
2022/07/10 12:30:43;;;;;;;;;2.00;2.00;;;;;25.52;37.44;102287.94;2399109;28;45571;-82
2022/07/10 12:32:01;;;;;;;;;1.25;1.25;;;;;25.55;37.00;102284.19;2400199;28;45480;-82
2022/07/10 12:33:18;;;;;;;;;3.75;2.25;;;;;25.56;36.76;102283.22;2394267;28;46544;-82
2022/07/10 12:34:39;;;;;;;;;2.00;2.00;;;;;25.57;36.87;102280.41;2389412;28;45125;-82
2022/07/10 12:35:55;;;;;;;;;2.00;2.00;;;;;25.59;36.92;102289.22;2390171;28;46274;-82
2022/07/10 12:37:13;;;;;;;;;2.00;2.00;;;;;25.61;37.06;102283.72;2393185;28;45358;-82
2022/07/10 12:38:29;;;;;;;;;2.00;2.00;;;;;25.61;36.46;102287.28;2389074;28;47389;-82
2022/07/10 12:39:53;;;;;;;;;2.00;2.00;;;;;25.63;36.67;102281.78;2390675;28;45277;-82
2022/07/10 12:41:07;;;;;;;;;2.00;1.50;;;;;25.65;36.34;102287.91;2393673;28;45309;-82
2022/07/10 12:42:44;;;;;;;;;2.00;2.00;;;;;25.60;36.45;102285.56;2391535;28;45722;-82
2022/07/10 12:43:54;;;;;;;;;2.75;2.00;;;;;25.57;36.41;102275.03;2389839;28;45619;-82
2022/07/10 12:45:12;;;;;;;;;1.25;1.25;;;;;25.58;36.47;102276.72;2393380;28;45212;-82
2022/07/10 12:46:24;;;;;;;;;1.25;1.25;;;;;25.61;36.56;102270.25;2395635;28;47799;-82
2022/07/10 12:47:45;;;;;;;;;3.00;1.50;;;;;25.62;37.50;102267.47;2393144;28;44861;-82
2022/07/10 12:49:02;;;;;;;;;1.00;1.00;;;;;25.66;37.17;102275.28;2393219;28;45404;-82
2022/07/10 12:50:14;;;;;;;;;1.75;1.75;;;;;25.66;36.53;102270.78;2393418;28;44735;-82
2022/07/10 12:51:26;;;;;;;;;2.00;2.00;;;;;25.67;37.09;102277.03;2392959;28;45337;-81
2022/07/10 12:52:38;;;;;;;;;1.25;1.25;;;;;25.70;36.92;102274.13;2382856;28;44798;-81
2022/07/10 12:53:48;;;;;;;;;3.25;2.00;;;;;25.71;36.87;102265.91;2385696;28;45600;-81
2022/07/10 12:55:16;;;;;;;;;2.00;2.00;;;;;25.72;37.00;102264.09;2393011;28;45424;-82
2022/07/10 12:56:37;;;;;;;;;2.00;1.00;;;;;25.74;37.08;102270.25;2393027;28;45561;-82
2022/07/10 12:57:54;;;;;;;;;2.00;2.00;;;;;25.74;36.28;102275.63;2398003;28;44745;-81